createdAt,value
2018-08-24T00:01:02.906Z,64.58
2018-08-24T00:03:31.500Z,65.09
2018-08-24T00:06:00.094Z,64.73
2018-08-24T00:08:29.211Z,64.99
2018-08-24T00:10:57.805Z,64.70
2018-08-24T00:13:26.379Z,65.09
2018-08-24T00:15:55.149Z,65.45
2018-08-24T00:18:23.689Z,65.22
2018-08-24T00:20:52.217Z,65.48
2018-08-24T00:23:21.380Z,64.32
2018-08-24T00:25:49.912Z,64.19
2018-08-24T00:28:18.474Z,63.47
2018-08-24T00:30:46.973Z,63.47
2018-08-24T00:33:15.523Z,63.19
2018-08-24T00:35:44.047Z,63.11
2018-08-24T00:38:12.604Z,62.93
2018-08-24T00:40:41.128Z,62.80
2018-08-24T00:43:09.909Z,62.68
2018-08-24T00:45:38.411Z,63.27
2018-08-24T00:48:06.981Z,63.02
2018-08-24T00:50:35.499Z,63.61
2018-08-24T00:53:04.289Z,63.15
2018-08-24T00:55:32.813Z,63.28
2018-08-24T00:58:01.367Z,62.64
2018-08-24T01:00:35.139Z,63.34
2018-08-24T01:03:04.066Z,62.25
2018-08-24T01:05:32.607Z,61.77
2018-08-24T01:08:06.410Z,62.17
2018-08-24T01:10:35.346Z,61.66
2018-08-24T01:13:03.982Z,62.16
2018-08-24T01:15:43.682Z,62.35
2018-08-24T01:18:16.712Z,63.12
2018-08-24T01:20:50.373Z,62.93
2018-08-24T01:23:22.122Z,62.39
2018-08-24T01:25:50.637Z,62.42
2018-08-24T01:28:20.158Z,62.22
2018-08-24T01:30:48.743Z,61.62
2018-08-24T01:33:17.887Z,61.93
2018-08-24T01:35:47.152Z,62.20
2018-08-24T01:38:16.034Z,64.11
2018-08-24T01:40:44.585Z,64.59
2018-08-24T01:43:13.126Z,65.47
2018-08-24T01:45:41.658Z,65.80
2018-08-24T01:48:10.522Z,65.82
2018-08-24T01:50:39.088Z,65.11
2018-08-24T01:53:07.892Z,64.24
2018-08-24T01:55:36.918Z,64.64
2018-08-24T01:58:05.835Z,66.62
2018-08-24T02:00:34.784Z,66.74
2018-08-24T02:03:03.345Z,68.00
2018-08-24T02:05:32.365Z,68.73
2018-08-24T02:08:00.929Z,68.89
2018-08-24T02:10:29.882Z,70.07
2018-08-24T02:13:03.591Z,71.88
2018-08-24T02:15:32.132Z,71.21
2018-08-24T02:18:05.833Z,70.83
2018-08-24T02:20:39.886Z,70.67
2018-08-24T02:23:13.847Z,70.10
2018-08-24T02:25:43.646Z,71.25
2018-08-24T02:28:12.910Z,71.71
2018-08-24T02:30:41.862Z,72.80
2018-08-24T02:33:10.378Z,72.36
2018-08-24T02:35:38.907Z,71.49
2018-08-24T02:38:07.440Z,70.08
2018-08-24T02:40:36.030Z,70.02
2018-08-24T02:43:04.875Z,69.78
2018-08-24T02:45:33.452Z,69.46
2018-08-24T02:48:01.985Z,70.20
2018-08-24T02:50:30.541Z,71.05
2018-08-24T02:52:59.090Z,71.65
2018-08-24T02:55:27.633Z,72.11
2018-08-24T02:57:56.157Z,71.68
2018-08-24T03:00:24.950Z,71.15
2018-08-24T03:02:53.483Z,71.30
2018-08-24T03:05:22.212Z,71.53
2018-08-24T03:07:50.668Z,72.63
2018-08-24T03:10:19.232Z,71.78
2018-08-24T03:12:47.768Z,71.57
2018-08-24T03:15:17.267Z,69.78
2018-08-24T03:17:50.863Z,69.54
2018-08-24T03:20:19.464Z,68.13
2018-08-24T03:22:48.014Z,68.22
2018-08-24T03:25:16.914Z,67.96
2018-08-24T03:27:45.434Z,67.41
2018-08-24T03:30:13.966Z,67.40
2018-08-24T03:32:43.137Z,67.89
2018-08-24T03:35:11.692Z,67.77
2018-08-24T03:37:40.273Z,67.87
2018-08-24T03:40:08.850Z,68.10
2018-08-24T03:42:37.480Z,68.08
2018-08-24T03:45:06.081Z,67.93
2018-08-24T03:47:34.962Z,68.73
2018-08-24T03:50:03.564Z,68.61
2018-08-24T03:52:32.356Z,68.37
2018-08-24T03:55:00.887Z,69.56
2018-08-24T03:57:29.425Z,68.93
2018-08-24T03:59:57.988Z,70.53
2018-08-24T04:02:26.496Z,71.75
2018-08-24T04:04:55.031Z,72.00
2018-08-24T04:07:25.287Z,71.99
2018-08-24T04:09:54.140Z,71.04
2018-08-24T04:12:22.661Z,70.88
2018-08-24T04:14:51.208Z,71.94
2018-08-24T04:17:25.786Z,71.56
2018-08-24T04:19:54.753Z,70.62
2018-08-24T04:22:23.279Z,71.68
2018-08-24T04:24:52.093Z,73.34
2018-08-24T04:27:20.617Z,74.94
2018-08-24T04:29:49.690Z,75.57
2018-08-24T04:32:18.194Z,75.00
2018-08-24T04:34:46.805Z,75.40
2018-08-24T04:37:15.667Z,75.48
2018-08-24T04:39:44.213Z,75.33
2018-08-24T04:42:12.768Z,75.27
2018-08-24T04:44:41.318Z,75.30
2018-08-24T04:47:09.835Z,74.54
2018-08-24T04:49:38.335Z,76.08
2018-08-24T04:52:08.360Z,76.24
2018-08-24T04:54:36.902Z,75.72
2018-08-24T04:57:06.098Z,76.07
2018-08-24T04:59:34.672Z,75.92
2018-08-24T05:02:03.521Z,74.98
2018-08-24T05:04:32.060Z,75.95
2018-08-24T05:07:00.605Z,76.33
2018-08-24T05:09:29.124Z,76.39
2018-08-24T05:11:57.663Z,76.72
2018-08-24T05:14:26.625Z,77.56
2018-08-24T05:16:55.186Z,77.01
2018-08-24T05:19:23.709Z,78.37
2018-08-24T05:21:52.250Z,77.25
2018-08-24T05:24:20.783Z,77.86
2018-08-24T05:26:49.778Z,78.06
2018-08-24T05:29:18.306Z,78.58
2018-08-24T05:31:47.073Z,78.63
2018-08-24T05:34:15.601Z,77.89
2018-08-24T05:36:44.153Z,77.69
2018-08-24T05:39:12.678Z,77.30
2018-08-24T05:41:41.566Z,77.68
2018-08-24T05:44:10.498Z,77.18
2018-08-24T05:46:39.070Z,76.47
2018-08-24T05:49:07.910Z,75.80
2018-08-24T05:51:36.498Z,75.27
2018-08-24T05:54:05.049Z,73.83
2018-08-24T05:56:33.623Z,71.40
2018-08-24T05:59:03.062Z,70.43
2018-08-24T06:01:31.624Z,69.04
2018-08-24T06:04:00.160Z,66.86
2018-08-24T06:06:28.675Z,65.20
2018-08-24T06:09:03.761Z,63.10
2018-08-24T06:11:32.315Z,63.58
2018-08-24T06:14:00.826Z,63.33
2018-08-24T06:16:29.692Z,62.75
2018-08-24T06:18:58.209Z,62.67
2018-08-24T06:21:26.769Z,62.39
2018-08-24T06:23:55.382Z,62.40
2018-08-24T06:26:24.365Z,62.20
2018-08-24T06:28:52.900Z,61.28
2018-08-24T06:31:21.911Z,61.25
2018-08-24T06:33:50.427Z,61.05
2018-08-24T06:36:18.972Z,59.93
2018-08-24T06:38:47.491Z,59.89
2018-08-24T06:41:16.053Z,58.88
2018-08-24T06:43:45.374Z,58.84
2018-08-24T06:46:13.945Z,58.22
2018-08-24T06:48:42.457Z,57.58
2018-08-24T06:51:11.037Z,58.44
2018-08-24T06:53:39.612Z,59.05
2018-08-24T06:56:08.962Z,57.82
2018-08-24T06:58:37.489Z,58.48
2018-08-24T07:01:06.172Z,57.70
2018-08-24T07:03:34.709Z,57.52
2018-08-24T07:06:03.288Z,57.99
2018-08-24T07:08:32.035Z,57.43
2018-08-24T07:11:00.544Z,56.30
2018-08-24T07:13:29.124Z,57.20
2018-08-24T07:15:57.712Z,57.49
2018-08-24T07:18:26.242Z,56.54
2018-08-24T07:20:55.255Z,56.81
2018-08-24T07:23:23.832Z,56.43
2018-08-24T07:25:52.564Z,57.71
2018-08-24T07:28:21.357Z,56.83
2018-08-24T07:30:49.839Z,56.37
2018-08-24T07:33:18.786Z,55.73
2018-08-24T07:35:47.524Z,57.05
2018-08-24T07:38:16.082Z,56.83
2018-08-24T07:40:44.619Z,57.25
2018-08-24T07:43:13.197Z,57.82
2018-08-24T07:45:41.738Z,57.25
2018-08-24T07:48:10.285Z,57.77
2018-08-24T07:50:38.813Z,57.75
2018-08-24T07:53:07.811Z,58.77
2018-08-24T07:55:36.602Z,59.12
2018-08-24T07:58:05.473Z,60.03
2018-08-24T08:00:34.051Z,59.98
2018-08-24T08:03:02.599Z,60.95
2018-08-24T08:05:31.233Z,62.34
2018-08-24T08:08:00.686Z,63.17
2018-08-24T08:10:33.666Z,65.64
2018-08-24T08:13:02.961Z,66.28
2018-08-24T08:15:33.022Z,67.25
2018-08-24T08:18:01.593Z,70.33
2018-08-24T08:20:30.116Z,70.52
2018-08-24T08:22:58.952Z,71.87
2018-08-24T08:25:27.489Z,72.69
2018-08-24T08:27:56.058Z,73.10
2018-08-24T08:30:24.559Z,73.07
2018-08-24T08:32:53.249Z,73.70
2018-08-24T08:35:22.794Z,74.18
2018-08-24T08:37:52.152Z,72.94
2018-08-24T08:40:22.177Z,73.95
2018-08-24T08:42:51.435Z,73.76
2018-08-24T08:45:20.986Z,74.31
2018-08-24T08:47:49.507Z,74.98
2018-08-24T08:50:18.546Z,74.29
2018-08-24T08:52:48.663Z,74.22
2018-08-24T08:55:17.184Z,77.56
2018-08-24T08:57:46.617Z,79.21
2018-08-24T09:00:15.129Z,80.21
2018-08-24T09:02:47.516Z,79.23
2018-08-24T09:05:16.040Z,80.03
2018-08-24T09:07:46.780Z,79.66
2018-08-24T09:10:15.752Z,79.76
2018-08-24T09:12:44.624Z,78.79
2018-08-24T09:15:13.157Z,77.71
2018-08-24T09:17:47.628Z,76.04
2018-08-24T09:20:21.323Z,77.90
2018-08-24T09:22:55.285Z,77.43
2018-08-24T09:25:29.257Z,76.81
2018-08-24T09:28:03.273Z,75.65
2018-08-24T09:30:37.740Z,76.33
2018-08-24T09:33:06.312Z,75.16
2018-08-24T09:35:35.652Z,76.49
2018-08-24T09:38:05.611Z,76.12
2018-08-24T09:40:39.496Z,74.03
2018-08-24T09:43:13.154Z,73.27
2018-08-24T09:45:41.693Z,73.51
2018-08-24T09:48:16.603Z,75.06
2018-08-24T09:50:50.253Z,75.38
2018-08-24T09:53:24.297Z,77.55
2018-08-24T09:55:53.506Z,76.30
2018-08-24T09:58:23.150Z,76.35
2018-08-24T10:01:01.074Z,74.69
2018-08-24T10:03:34.945Z,73.90
2018-08-24T10:06:08.590Z,75.17
2018-08-24T10:08:42.660Z,76.28
2018-08-24T10:11:11.191Z,75.89
2018-08-24T10:13:39.765Z,75.05
2018-08-24T10:16:08.398Z,74.05
2018-08-24T10:18:37.213Z,73.97
2018-08-24T10:21:05.750Z,72.48
2018-08-24T10:23:34.838Z,73.95
2018-08-24T10:26:03.391Z,72.44
2018-08-24T10:28:32.136Z,72.90
2018-08-24T10:31:00.726Z,74.11
2018-08-24T10:33:29.259Z,70.29
2018-08-24T10:35:57.801Z,71.85
2018-08-24T10:38:26.452Z,70.42
2018-08-24T10:40:55.103Z,70.10
2018-08-24T10:43:23.552Z,68.73
2018-08-24T10:45:52.111Z,67.87
2018-08-24T10:48:20.646Z,68.31
2018-08-24T10:50:50.216Z,66.32
2018-08-24T10:53:18.731Z,66.42
2018-08-24T10:55:47.365Z,65.25
2018-08-24T10:58:15.828Z,63.24
2018-08-24T11:00:44.385Z,59.62
2018-08-24T11:03:13.329Z,60.08
2018-08-24T11:05:41.889Z,59.27
2018-08-24T11:08:10.401Z,61.00
2018-08-24T11:10:39.697Z,58.51
2018-08-24T11:13:08.516Z,58.01
2018-08-24T11:15:37.948Z,55.92
2018-08-24T11:18:08.753Z,60.71
2018-08-24T11:20:39.029Z,60.14
2018-08-24T11:23:08.099Z,59.37
2018-08-24T11:25:37.045Z,57.32
2018-08-24T11:28:06.490Z,52.48
2018-08-24T11:30:35.025Z,54.54
2018-08-24T11:33:03.572Z,53.81
2018-08-24T11:35:32.218Z,54.49
2018-08-24T11:38:01.934Z,53.08
2018-08-24T11:40:30.470Z,53.58
2018-08-24T11:43:00.782Z,51.79
2018-08-24T11:45:30.159Z,51.53
2018-08-24T11:47:58.939Z,52.31
2018-08-24T11:50:27.477Z,53.79
2018-08-24T11:52:56.059Z,54.80
2018-08-24T11:55:24.592Z,53.52
2018-08-24T11:57:53.149Z,51.58
2018-08-24T12:00:26.037Z,50.32
2018-08-24T12:02:56.139Z,51.21
2018-08-24T12:05:24.673Z,51.03
2018-08-24T12:07:53.265Z,52.18
2018-08-24T12:10:22.212Z,49.64
2018-08-24T12:12:50.783Z,46.64
2018-08-24T12:15:19.697Z,47.18
2018-08-24T12:17:48.285Z,45.61
2018-08-24T12:20:17.017Z,46.58
2018-08-24T12:22:45.888Z,47.24
2018-08-24T12:25:14.661Z,47.75
2018-08-24T12:27:43.239Z,46.57
2018-08-24T12:30:11.775Z,47.65
2018-08-24T12:32:41.110Z,47.33
2018-08-24T12:35:09.606Z,46.57
2018-08-24T12:37:43.406Z,44.36
2018-08-24T12:40:12.004Z,44.48
2018-08-24T12:42:41.300Z,43.51
2018-08-24T12:45:09.886Z,43.42
2018-08-24T12:47:38.672Z,43.74
2018-08-24T12:50:07.888Z,44.09
2018-08-24T12:52:37.254Z,44.79
2018-08-24T12:55:06.858Z,38.36
2018-08-24T12:57:36.059Z,39.80
2018-08-24T13:00:04.796Z,41.39
2018-08-24T13:02:33.312Z,40.81
2018-08-24T13:05:02.565Z,41.40
2018-08-24T13:07:31.936Z,40.34
2018-08-24T13:10:00.696Z,38.48
2018-08-24T13:12:29.223Z,40.47
2018-08-24T13:14:58.331Z,39.41
2018-08-24T13:17:26.969Z,38.27
2018-08-24T13:19:56.200Z,39.11
2018-08-24T13:22:24.758Z,38.99
2018-08-24T13:24:54.251Z,37.56
2018-08-24T13:27:23.685Z,35.92
2018-08-24T13:29:52.216Z,37.35
2018-08-24T13:32:20.841Z,39.08
2018-08-24T13:34:49.373Z,38.68
2018-08-24T13:37:18.549Z,39.31
2018-08-24T13:39:47.508Z,38.05
2018-08-24T13:42:16.913Z,37.51
2018-08-24T13:44:45.654Z,38.82
2018-08-24T13:47:14.223Z,36.50
2018-08-24T13:49:42.744Z,37.11
2018-08-24T13:52:11.557Z,36.62
2018-08-24T13:54:40.667Z,37.61
2018-08-24T13:57:09.815Z,36.20
2018-08-24T13:59:38.715Z,34.96
2018-08-24T14:02:07.273Z,35.43
2018-08-24T14:04:35.827Z,35.54
2018-08-24T14:07:04.605Z,35.46
2018-08-24T14:09:33.992Z,37.33
2018-08-24T14:12:02.886Z,38.28
2018-08-24T14:14:31.415Z,36.97
2018-08-24T14:16:59.962Z,36.53
2018-08-24T14:19:29.049Z,36.55
2018-08-24T14:21:57.599Z,35.66
2018-08-24T14:24:26.162Z,35.53
2018-08-24T14:26:55.193Z,35.27
2018-08-24T14:29:23.756Z,35.25
2018-08-24T14:31:53.295Z,35.94
2018-08-24T14:34:21.893Z,37.38
2018-08-24T14:36:50.782Z,38.74
2018-08-24T14:39:20.023Z,36.95
2018-08-24T14:41:48.527Z,37.83
2018-08-24T14:44:17.712Z,38.67
2018-08-24T14:46:47.125Z,37.65
2018-08-24T14:49:16.253Z,38.94
2018-08-24T14:51:46.431Z,38.79
2018-08-24T14:54:15.254Z,37.70
2018-08-24T14:56:43.812Z,37.53
2018-08-24T14:59:12.357Z,38.24
2018-08-24T15:01:40.899Z,37.85
2018-08-24T15:04:09.458Z,37.57
2018-08-24T15:06:38.510Z,37.72
2018-08-24T15:09:09.141Z,37.62
2018-08-24T15:11:38.137Z,36.12
2018-08-24T15:14:07.247Z,35.76
2018-08-24T15:16:36.676Z,35.96
2018-08-24T15:19:05.409Z,36.20
2018-08-24T15:21:34.688Z,36.19
2018-08-24T15:24:05.516Z,35.82
2018-08-24T15:26:34.174Z,35.53
2018-08-24T15:29:02.777Z,34.98
2018-08-24T15:31:36.921Z,34.85
2018-08-24T15:34:10.468Z,34.95
2018-08-24T15:36:43.733Z,35.08
2018-08-24T15:39:20.572Z,34.98
2018-08-24T15:41:54.140Z,35.75
2018-08-24T15:44:27.633Z,36.90
2018-08-24T15:46:58.419Z,36.45
2018-08-24T15:49:27.054Z,36.04
2018-08-24T15:51:55.701Z,36.02
2018-08-24T15:54:24.264Z,37.35
2018-08-24T15:56:52.803Z,37.21
2018-08-24T15:59:21.371Z,37.07
2018-08-24T16:01:49.889Z,36.75
2018-08-24T16:04:18.431Z,36.94
2018-08-24T16:06:47.364Z,37.06
2018-08-24T16:09:22.545Z,37.21
2018-08-24T16:11:55.153Z,37.49
2018-08-24T16:14:27.522Z,37.59
2018-08-24T16:16:56.030Z,37.78
2018-08-24T16:19:24.783Z,37.52
2018-08-24T16:21:59.714Z,38.05
2018-08-24T16:24:28.303Z,37.81
2018-08-24T16:26:56.807Z,38.06
2018-08-24T16:29:26.178Z,37.99
2018-08-24T16:31:55.402Z,36.78
2018-08-24T16:34:23.941Z,36.78
2018-08-24T16:36:52.545Z,36.57
2018-08-24T16:39:21.046Z,36.54
2018-08-24T16:41:50.835Z,37.00
2018-08-24T16:44:19.395Z,36.30
2018-08-24T16:46:47.978Z,36.48
2018-08-24T16:49:16.487Z,37.25
2018-08-24T16:51:44.986Z,37.12
2018-08-24T16:54:14.002Z,37.09
2018-08-24T16:56:43.365Z,37.06
2018-08-24T16:59:12.191Z,36.45
2018-08-24T17:01:40.815Z,36.20
2018-08-24T17:04:24.311Z,36.80
2018-08-24T17:06:53.603Z,36.89
2018-08-24T17:09:28.434Z,36.73
2018-08-24T17:11:57.345Z,35.95
2018-08-24T17:14:25.897Z,35.12
2018-08-24T17:16:54.416Z,35.96
2018-08-24T17:19:23.030Z,36.12
2018-08-24T17:21:51.826Z,35.79
2018-08-24T17:24:20.394Z,35.77
2018-08-24T17:26:48.978Z,36.01
2018-08-24T17:29:18.258Z,35.13
2018-08-24T17:31:47.014Z,35.14
2018-08-24T17:34:15.556Z,34.91
2018-08-24T17:36:44.084Z,34.35
2018-08-24T17:39:14.105Z,34.26
2018-08-24T17:41:42.629Z,34.26
2018-08-24T17:44:12.121Z,34.17
2018-08-24T17:46:41.053Z,33.98
2018-08-24T17:49:09.602Z,34.51
2018-08-24T17:51:38.278Z,32.74
2018-08-24T17:54:07.881Z,32.97
2018-08-24T17:56:36.444Z,32.77
2018-08-24T17:59:05.185Z,32.76
2018-08-24T18:01:35.514Z,32.94
2018-08-24T18:04:04.074Z,32.82
2018-08-24T18:06:33.090Z,33.27
2018-08-24T18:09:01.626Z,33.24
2018-08-24T18:11:30.427Z,33.40
2018-08-24T18:13:58.972Z,33.28
2018-08-24T18:16:27.753Z,33.54
2018-08-24T18:18:56.321Z,34.03
2018-08-24T18:21:25.606Z,33.59
2018-08-24T18:23:54.150Z,34.08
2018-08-24T18:26:22.729Z,33.82
2018-08-24T18:28:51.311Z,34.34
2018-08-24T18:31:20.612Z,33.70
2018-08-24T18:33:50.521Z,34.61
2018-08-24T18:36:20.214Z,34.48
2018-08-24T18:38:49.062Z,34.86
2018-08-24T18:41:17.608Z,35.01
2018-08-24T18:43:46.806Z,35.55
2018-08-24T18:46:15.348Z,35.90
2018-08-24T18:48:43.964Z,36.04
2018-08-24T18:51:12.782Z,35.87
2018-08-24T18:53:41.328Z,35.92
2018-08-24T18:56:10.476Z,36.09
2018-08-24T18:58:38.998Z,36.07
2018-08-24T19:01:08.534Z,36.79
2018-08-24T19:03:37.643Z,36.60
2018-08-24T19:06:06.216Z,36.51
2018-08-24T19:08:35.164Z,36.79
2018-08-24T19:11:09.445Z,36.72
2018-08-24T19:13:38.009Z,37.01
2018-08-24T19:16:07.009Z,37.09
2018-08-24T19:18:40.951Z,36.66
2018-08-24T19:21:15.122Z,37.36
2018-08-24T19:23:43.645Z,37.09
2018-08-24T19:26:13.325Z,37.24
2018-08-24T19:28:46.917Z,37.15
2018-08-24T19:31:15.748Z,37.09
2018-08-24T19:33:44.285Z,37.42
2018-08-24T19:36:12.877Z,37.31
2018-08-24T19:38:41.714Z,37.01
2018-08-24T19:41:15.656Z,37.89
2018-08-24T19:43:44.606Z,37.48
2018-08-24T19:46:13.450Z,37.99
2018-08-24T19:48:47.128Z,37.96
2018-08-24T19:51:17.020Z,37.73
2018-08-24T19:53:45.554Z,37.89
2018-08-24T19:56:14.425Z,37.94
2018-08-24T19:58:48.734Z,37.98
2018-08-24T20:01:17.290Z,37.33
2018-08-24T20:03:46.276Z,38.04
2018-08-24T20:06:20.243Z,37.97
2018-08-24T20:08:54.323Z,38.13
2018-08-24T20:11:23.031Z,37.90
2018-08-24T20:13:51.565Z,38.40
2018-08-24T20:16:25.399Z,38.18
2018-08-24T20:18:53.929Z,38.64
2018-08-24T20:21:22.781Z,38.12
2018-08-24T20:23:51.295Z,38.60
2018-08-24T20:26:20.612Z,39.06
2018-08-24T20:28:49.445Z,38.90
2018-08-24T20:31:18.569Z,39.28
2018-08-24T20:33:47.555Z,39.13
2018-08-24T20:36:16.090Z,39.53
2018-08-24T20:38:44.618Z,39.46
2018-08-24T20:41:13.400Z,39.37
2018-08-24T20:43:41.926Z,38.98
2018-08-24T20:46:10.475Z,39.16
2018-08-24T20:48:39.005Z,38.95
2018-08-24T20:51:08.067Z,40.15
2018-08-24T20:53:37.850Z,39.73
2018-08-24T20:56:06.865Z,39.90
2018-08-24T20:58:36.661Z,39.70
2018-08-24T21:01:05.940Z,39.71
2018-08-24T21:03:35.029Z,40.08
2018-08-24T21:06:04.765Z,39.60
2018-08-24T21:08:33.290Z,39.75
2018-08-24T21:11:01.834Z,40.49
2018-08-24T21:13:30.710Z,40.23
2018-08-24T21:16:00.253Z,40.29
2018-08-24T21:18:29.330Z,40.39
2018-08-24T21:20:58.611Z,40.02
2018-08-24T21:23:27.230Z,40.53
2018-08-24T21:25:56.003Z,42.06
2018-08-24T21:28:24.583Z,42.67
2018-08-24T21:30:53.545Z,41.88
2018-08-24T21:33:22.877Z,41.11
2018-08-24T21:35:51.423Z,41.69
2018-08-24T21:38:20.037Z,43.13
2018-08-24T21:40:49.603Z,44.00
2018-08-24T21:43:18.258Z,43.95
2018-08-24T21:45:46.808Z,44.14
2018-08-24T21:48:16.325Z,44.59
2018-08-24T21:50:45.292Z,44.49
2018-08-24T21:53:13.851Z,45.18
2018-08-24T21:55:42.766Z,45.69
2018-08-24T21:58:11.333Z,46.72
2018-08-24T22:00:41.527Z,47.19
2018-08-24T22:03:11.101Z,46.77
2018-08-24T22:05:39.977Z,47.24
2018-08-24T22:08:08.610Z,47.14
2018-08-24T22:10:37.929Z,47.07
2018-08-24T22:13:06.527Z,47.50
2018-08-24T22:15:35.506Z,47.60
2018-08-24T22:18:04.291Z,47.46
2018-08-24T22:20:32.820Z,47.47
2018-08-24T22:23:01.437Z,48.08
2018-08-24T22:25:29.965Z,47.66
2018-08-24T22:27:58.557Z,48.86
2018-08-24T22:30:27.521Z,49.49
2018-08-24T22:32:57.570Z,50.61
2018-08-24T22:35:26.112Z,50.73
2018-08-24T22:37:54.669Z,49.15
2018-08-24T22:40:23.218Z,48.35
2018-08-24T22:42:51.822Z,47.19
2018-08-24T22:45:21.116Z,46.62
2018-08-24T22:47:49.887Z,46.63
2018-08-24T22:50:18.387Z,47.15
2018-08-24T22:52:46.928Z,47.41
2018-08-24T22:55:16.450Z,47.25
2018-08-24T22:57:45.097Z,47.63
2018-08-24T23:00:13.869Z,47.09
2018-08-24T23:02:42.844Z,47.28
2018-08-24T23:05:11.710Z,46.61
2018-08-24T23:07:41.040Z,46.87
2018-08-24T23:10:10.832Z,45.05
2018-08-24T23:12:39.781Z,44.65
2018-08-24T23:15:09.152Z,44.32
2018-08-24T23:17:37.754Z,45.52
2018-08-24T23:20:06.367Z,46.75
2018-08-24T23:22:35.248Z,48.98
2018-08-24T23:25:04.069Z,49.89
2018-08-24T23:27:32.862Z,49.83
2018-08-24T23:30:01.402Z,49.39
2018-08-24T23:32:30.026Z,48.86
2018-08-24T23:34:59.689Z,48.05
2018-08-24T23:37:28.245Z,47.65
2018-08-24T23:39:56.765Z,46.98
2018-08-24T23:42:25.318Z,46.75
2018-08-24T23:44:53.851Z,46.63
2018-08-24T23:47:23.587Z,45.75
2018-08-24T23:49:52.556Z,47.21
2018-08-24T23:52:21.325Z,45.53
2018-08-24T23:54:49.921Z,45.36
2018-08-24T23:57:18.941Z,44.97
2018-08-24T23:59:48.137Z,45.84
